Detailed Flight Report of Safa INALTEKIN ;
Number CXD159 
Departure Aerodrome LTAI 
Arrival Aerodrome LTFJ

Map generated by the Great Circle Mapper - copyright © Karl L. Swartz.

Pilot In Command CXD159 : Safa Inaltekin
Aircraft B738 / TC-KRD
Date Of Flight 2019-11-10
Departure Time 10:33 UTC
Arrival Time 11:50 UTC
Block Time 01:17
Distance 292 Nm.
Used Fuel 6,651 Lbs.
   
Detailed Flight Log [2019/11/10 10:20:00]
Flight IATA:C159
Pilot Number:159
Company ICAO:CXD
Aircraft Type:B738
Aircraft Registration:TC-KRD
Departing Airport: LTAI
Destination Airport: LTFJ
Alternate Airport:LTBA
Online: VATSIM
Route:EKSE1K EKSEN UA16 ELVON ELVO1G
Flight Level:FL280
No pause
10:20 Zero fuel Weight: 127649 Lbs, Fuel Weight: 10674 Lbs
10:20 VATSIM:LTAI 100950Z VRB03KT 340V150 9999 FEW030 BKN200 27/06 Q1017 NOSIG
10:20 VATSIM:LTFJ 100950Z 24006KT 210V270 CAVOK 22/08 Q1015 NOSIG
10:20 Parking Brakes off
10:39 VR= 153 Knots
10:39 V2= 163 Knots
10:39 Take-off
10:39 Take off Weight: 137476 Lbs
10:39 Wind: 178º @ 009 Knots Heading: 004º
10:39 POS N36º 53´ 53´´ E030º 48´ 34´´
10:39 N11 100 N12 100
10:39 Flaps:5º at 165 Knots
10:39 Gear Up: 168 Knots
10:41 Flaps:2º at 206 Knots
10:41 Flaps:1º at 212 Knots
10:41 Flaps:Up at 225 Knots
10:50 TOC
10:50 Fuel Weight: 7244 Lb

10:54 Wind:274º@029 Knots Heading: 347º Ground Speed: 396 Knots Altitude 27992 ft
11:04 TOD
11:04 Fuel Weight: 6017 Lb
11:09 Wind:282º@013 Knots Heading: 324º Ground Speed: 356 Knots Altitude 23559 ft
11:22 Flaps:1º at 240 Knots
11:22 Flaps:2º at 231 Knots
11:22 Gear Down: 223 Knots
11:23 Flaps:5º at 220 Knots
11:23 Gear Up: 182 Knots
11:24 Wind:045º@016 Knots Heading: 337º Ground Speed: 191 Knots Altitude 2992 ft
11:29 Gear Down: 181 Knots
11:29 Flaps:10º at 180 Knots
11:31 Flaps:15º at 170 Knots
11:31 Flaps:25º at 169 Knots
11:31 Flaps:30º at 166 Knots
11:32 Flaps:Full at 156 Knots
11:33 TouchDown:Rate -110 ft/min Speed: 145 Knots
11:34 VATSIM:LTFJ 101120Z 24005KT CAVOK 23/08 Q1015 NOSIG
11:34 Land
11:34 Wind:049º@020 Knots
11:34 Heading: 064º
11:34 Flight Duration: 00:55
11:34 Landing Weight: 131859 Lbs
11:34 POS N40º 53´ 59´´ E029º 18´ 46´´
11:37
Parking brakes on
11:37 Block to Block Duration: 01:17
11:37 Final Fuel: 4023 Lbls
11:37 Spent Fuel: 6651 Lbls
11:37 Flight Length: 292 NM
11:37 TOD Land Length: 140 NM

Text Link of Flight Log http://www.candanair.net/acars/logs/CXD15920191110102000.txt
   

[ Back ]